Time;durP1;ratioP1;P1;durP2;ratioP2;P2;SDS_P1;SDS_P2;PMS_P1;PMS_P2;Temp;Humidity;BMP_temperature;BMP_pressure;BME280_temperature;BME280_humidity;BME280_pressure;Samples;Min_cycle;Max_cycle;Signal;HPM_P1;HPM_P2
2021/04/08 05:01:32;;;;;;;;;;;;;;;-1.41;90.26;97609.91;1612041;87;20657;-65
2021/04/08 05:04:00;;;;;;;;;;;;;;;-1.28;88.22;97610.93;1624613;86;20427;-65
2021/04/08 05:06:28;;;;;;;;;;;;;;;-1.20;88.02;97610.06;1628683;85;20491;-62
2021/04/08 05:08:56;;;;;;;;;;;;;;;-1.11;88.10;97619.83;1615708;87;20530;-63
2021/04/08 05:11:24;;;;;;;;;;;;;;;-1.02;88.29;97611.05;1610424;87;20775;-62
2021/04/08 05:13:52;;;;;;;;;;;;;;;-0.91;87.82;97619.65;1622933;85;20716;-61
2021/04/08 05:16:20;;;;;;;;;;;;;;;-0.83;86.94;97617.00;1619226;87;20609;-61
2021/04/08 05:18:48;;;;;;;;;;;;;;;-0.72;84.14;97620.42;1610069;87;20649;-64
2021/04/08 05:21:16;;;;;;;;;;;;;;;-0.59;83.40;97624.50;1619573;87;20489;-63
2021/04/08 05:23:43;;;;;;;;;;;;;;;-0.47;83.86;97622.27;1627164;87;21958;-65
2021/04/08 05:26:11;;;;;;;;;;;;;;;-0.36;84.39;97625.69;1611184;87;20538;-72
2021/04/08 05:28:39;;;;;;;;;;;;;;;-0.22;83.33;97627.98;1617849;87;20151;-69
2021/04/08 05:31:08;;;;;;;;;;;;;;;-0.10;80.26;97625.23;1607082;86;20510;-68
2021/04/08 05:33:36;;;;;;;;;;;;;;;0.05;77.49;97631.67;1607707;86;20655;-68
2021/04/08 05:36:05;;;;;;;;;;;;;;;0.21;72.59;97632.27;1668852;84;22014;-66
2021/04/08 05:38:33;;;;;;;;;;;;;;;0.41;72.75;97636.84;1665281;84;20562;-67
2021/04/08 05:41:02;;;;;;;;;;;;;;;0.53;71.00;97630.20;1670515;83;20489;-71
2021/04/08 05:43:30;;;;;;;;;;;;;;;0.71;69.38;97637.05;1672597;83;20482;-64
2021/04/08 05:45:58;;;;;;;;;;;;;;;0.85;67.63;97640.56;1673977;83;20699;-68
2021/04/08 05:48:27;;;;;;;;;;;;;;;1.01;64.88;97639.02;1669834;83;22302;-73
2021/04/08 05:50:55;;;;;;;;;;;;;;;1.17;65.03;97642.11;1680701;82;20503;-66
2021/04/08 05:53:22;;;;;;;;;;;;;;;1.30;64.04;97638.81;1677833;83;20627;-69
2021/04/08 05:55:50;;;;;;;;;;;;;;;1.40;63.09;97644.47;1687014;83;20607;-71
2021/04/08 05:58:18;;;;;;;;;;;;;;;1.50;62.48;97646.73;1672460;83;20750;-70
2021/04/08 06:00:46;;;;;;;;;;;;;;;1.61;61.23;97646.19;1677093;82;21774;-71
2021/04/08 06:03:14;;;;;;;;;;;;;;;1.71;59.42;97647.95;1682659;82;20528;-71
2021/04/08 06:05:42;;;;;;;;;;;;;;;1.80;59.88;97641.61;1676918;83;20598;-69
2021/04/08 06:08:10;;;;;;;;;;;;;;;1.88;58.61;97649.72;1677786;83;20506;-74
2021/04/08 06:10:40;;;;;;;;;;;;;;;1.98;57.90;97654.56;1680535;83;20508;-68
2021/04/08 06:13:08;;;;;;;;;;;;;;;2.07;57.07;97654.22;1667645;83;21764;-67
2021/04/08 06:15:37;;;;;;;;;;;;;;;2.15;57.76;97651.95;1671655;83;20493;-70
2021/04/08 06:18:06;;;;;;;;;;;;;;;2.21;56.30;97655.87;1687869;82;20222;-68
2021/04/08 06:20:35;;;;;;;;;;;;;;;2.27;56.09;97658.98;1681452;83;20575;-65
2021/04/08 06:23:05;;;;;;;;;;;;;;;2.33;55.46;97665.97;1685556;82;20586;-70
2021/04/08 06:25:33;;;;;;;;;;;;;;;2.40;55.53;97667.78;1683225;83;21917;-65
2021/04/08 06:28:01;;;;;;;;;;;;;;;2.45;55.28;97668.02;1684248;83;20546;-68
2021/04/08 06:30:29;;;;;;;;;;;;;;;2.49;55.20;97666.63;1688150;83;20445;-68
2021/04/08 06:32:57;;;;;;;;;;;;;;;2.55;53.94;97669.73;1680517;83;20725;-68
2021/04/08 06:35:25;;;;;;;;;;;;;;;2.65;53.22;97670.17;1676478;83;20611;-66
2021/04/08 06:37:53;;;;;;;;;;;;;;;2.70;52.56;97669.07;1680513;83;22077;-71
2021/04/08 06:40:21;;;;;;;;;;;;;;;2.78;52.99;97669.39;1680249;83;20536;-68
2021/04/08 06:42:53;;;;;;;;;;;;;;;2.85;51.97;97668.91;1679429;83;20673;-67
2021/04/08 06:45:23;;;;;;;;;;;;;;;2.93;53.01;97671.31;1671589;83;20652;-68
2021/04/08 06:48:04;;;;;;;;;;;;;;;2.97;52.44;97673.80;1673674;83;20617;-64
2021/04/08 06:50:36;;;;;;;;;;;;;;;3.00;53.01;97676.02;1684440;83;20809;-64
2021/04/08 06:53:05;;;;;;;;;;;;;;;3.06;51.68;97667.42;1685027;83;20448;-66
2021/04/08 06:55:33;;;;;;;;;;;;;;;3.14;52.32;97671.93;1682214;83;20493;-68
2021/04/08 06:58:05;;;;;;;;;;;;;;;3.22;51.44;97676.63;1673197;83;20622;-68
2021/04/08 07:00:35;;;;;;;;;;;;;;;3.27;52.07;97674.22;1670391;83;20436;-64
2021/04/08 07:03:07;;;;;;;;;;;;;;;3.32;51.43;97677.01;1661902;84;20987;-65
2021/04/08 07:05:35;;;;;;;;;;;;;;;3.35;51.52;97673.53;1668937;83;20636;-62
2021/04/08 07:08:04;;;;;;;;;;;;;;;3.42;50.63;97678.22;1673881;83;20559;-66
2021/04/08 07:10:31;;;;;;;;;;;;;;;3.49;50.09;97680.31;1677094;83;20715;-68
2021/04/08 07:13:00;;;;;;;;;;;;;;;3.56;49.67;97675.11;1670783;83;20516;-68
2021/04/08 07:15:30;;;;;;;;;;;;;;;3.61;49.96;97676.59;1677674;83;22188;-66
2021/04/08 07:17:58;;;;;;;;;;;;;;;3.70;49.06;97679.78;1674703;83;20436;-66
2021/04/08 07:20:43;;;;;;;;;;;;;;;3.75;48.14;97679.47;1677582;83;20360;-70
2021/04/08 07:23:29;;;;;;;;;;;;;;;3.82;48.44;97685.45;1598205;86;20605;-66
2021/04/08 07:26:08;;;;;;;;;;;;;;;3.94;47.41;97692.14;1618604;86;20920;-65
2021/04/08 07:28:42;;;;;;;;;;;;;;;4.02;44.48;97692.42;1618312;86;21916;-65
2021/04/08 07:31:25;;;;;;;;;;;;;;;4.10;44.18;97709.91;1637538;86;20404;-66
2021/04/08 07:33:54;;;;;;;;;;;;;;;4.14;42.83;97711.59;1641785;86;20532;-64
2021/04/08 07:36:35;;;;;;;;;;;;;;;4.10;41.29;97701.31;1664825;84;20488;-65
2021/04/08 07:39:14;;;;;;;;;;;;;;;4.04;41.63;97702.90;1653040;85;20590;-65
2021/04/08 07:41:42;;;;;;;;;;;;;;;4.02;43.75;97714.53;1649301;85;22016;-71
2021/04/08 07:44:11;;;;;;;;;;;;;;;3.99;43.70;97707.92;1644811;85;20955;-66
2021/04/08 07:46:42;;;;;;;;;;;;;;;3.95;43.72;97717.64;1649502;85;21140;-65
2021/04/08 07:49:30;;;;;;;;;;;;;;;3.89;43.44;97720.03;1645122;85;20578;-66
2021/04/08 07:51:59;;;;;;;;;;;;;;;3.92;43.87;97711.84;1652045;85;20723;-69
2021/04/08 07:54:27;;;;;;;;;;;;;;;4.01;44.45;97717.62;1623824;85;20819;-68
2021/04/08 07:56:55;;;;;;;;;;;;;;;4.09;45.01;97712.21;1657241;85;20610;-68
2021/04/08 07:59:26;;;;;;;;;;;;;;;4.15;44.67;97720.49;1655028;85;20495;-68
2021/04/08 08:02:06;;;;;;;;;;;;;;;4.18;44.33;97726.57;1654369;85;20550;-66
2021/04/08 08:04:34;;;;;;;;;;;;;;;4.27;43.77;97730.55;1638763;85;20610;-66
2021/04/08 08:07:02;;;;;;;;;;;;;;;4.35;44.10;97728.23;1627944;85;22065;-70
2021/04/08 08:09:31;;;;;;;;;;;;;;;4.39;44.25;97732.03;1651090;85;20532;-65
2021/04/08 08:12:09;;;;;;;;;;;;;;;4.41;44.27;97732.61;1658011;85;20120;-69
2021/04/08 08:14:39;;;;;;;;;;;;;;;4.44;44.81;97736.11;1637842;85;20560;-65
2021/04/08 08:17:12;;;;;;;;;;;;;;;4.48;44.74;97733.38;1648779;85;20842;-65
2021/04/08 08:19:45;;;;;;;;;;;;;;;4.53;45.25;97736.19;1644273;85;22400;-64
2021/04/08 08:22:24;;;;;;;;;;;;;;;4.60;44.37;97734.35;1649490;85;20562;-68
2021/04/08 08:24:58;;;;;;;;;;;;;;;4.67;43.30;97736.92;1627059;85;20654;-67
2021/04/08 08:27:44;;;;;;;;;;;;;;;4.73;43.00;97737.89;1650492;85;21129;-66
2021/04/08 08:30:21;;;;;;;;;;;;;;;4.75;43.13;97751.01;1645228;85;20649;-64
2021/04/08 08:33:06;;;;;;;;;;;;;;;4.76;42.42;97737.46;1643348;85;21924;-69
2021/04/08 08:35:38;;;;;;;;;;;;;;;4.80;42.38;97743.37;1644674;84;20568;-67
2021/04/08 08:38:09;;;;;;;;;;;;;;;4.93;43.13;97739.89;1620945;86;20338;-67
2021/04/08 08:40:38;;;;;;;;;;;;;;;5.05;42.77;97745.52;1653375;84;20539;-64
2021/04/08 08:43:07;;;;;;;;;;;;;;;5.15;41.52;97733.34;1642932;85;21121;-67
2021/04/08 08:45:35;;;;;;;;;;;;;;;5.33;41.62;97742.53;1670790;83;21963;-66
2021/04/08 08:48:06;;;;;;;;;;;;;;;5.53;41.46;97745.52;1671576;83;20606;-69
2021/04/08 08:50:35;;;;;;;;;;;;;;;5.70;40.32;97746.06;1665177;83;20400;-68
2021/04/08 08:53:03;;;;;;;;;;;;;;;5.87;40.33;97735.89;1661029;84;21523;-63
2021/04/08 08:55:33;;;;;;;;;;;;;;;6.01;39.95;97745.72;1672372;83;20603;-63
2021/04/08 08:58:01;;;;;;;;;;;;;;;6.17;40.75;97753.00;1677026;83;22137;-66
2021/04/08 09:00:29;;;;;;;;;;;;;;;6.32;39.99;97757.36;1663374;83;20619;-64
2021/04/08 09:02:59;;;;;;;;;;;;;;;6.39;39.50;97749.45;1654841;83;20626;-65
2021/04/08 09:05:29;;;;;;;;;;;;;;;6.38;38.88;97753.88;1665628;83;21233;-66
2021/04/08 09:07:59;;;;;;;;;;;;;;;6.34;38.45;97755.84;1682579;83;20647;-68
2021/04/08 09:10:34;;;;;;;;;;;;;;;6.25;39.07;97753.52;1657571;83;20663;-64
2021/04/08 09:13:03;;;;;;;;;;;;;;;6.22;39.53;97748.72;1661518;83;20148;-64
2021/04/08 09:15:33;;;;;;;;;;;;;;;6.23;40.40;97752.13;1638515;83;20484;-65
2021/04/08 09:18:03;;;;;;;;;;;;;;;6.24;40.85;97755.83;1672752;83;20485;-65
2021/04/08 09:20:32;;;;;;;;;;;;;;;6.23;39.37;97759.45;1669392;83;20643;-62
2021/04/08 09:23:07;;;;;;;;;;;;;;;6.20;39.51;97768.20;1684096;83;21793;-63
2021/04/08 09:25:53;;;;;;;;;;;;;;;6.17;39.88;97756.41;1664833;83;20598;-64
2021/04/08 09:28:32;;;;;;;;;;;;;;;;;;;;;
2021/04/08 09:31:19;;;;;;;;;;;;;;;6.20;39.66;97767.70;1663662;83;20555;-66
2021/04/08 09:33:44;;;;;;;;;;;;;;;6.35;39.66;97762.13;1674737;83;20610;-64
2021/04/08 09:36:21;;;;;;;;;;;;;;;6.52;38.01;97756.62;1678988;82;22035;-67
2021/04/08 09:38:49;;;;;;;;;;;;;;;6.67;38.38;97748.42;1669098;83;20228;-69
2021/04/08 09:41:19;;;;;;;;;;;;;;;6.80;37.75;97748.77;1676950;83;20589;-65
2021/04/08 09:43:46;;;;;;;;;;;;;;;6.90;39.35;97751.16;1676602;82;20807;-67
2021/04/08 09:46:15;;;;;;;;;;;;;;;7.04;38.85;97753.08;1673278;82;20628;-66
2021/04/08 09:48:53;;;;;;;;;;;;;;;7.14;38.30;97751.22;1669607;82;22028;-64
2021/04/08 09:51:32;;;;;;;;;;;;;;;7.19;37.99;97750.86;1675443;82;20523;-66
2021/04/08 09:54:06;;;;;;;;;;;;;;;7.29;38.10;97746.38;1674544;82;20609;-63
2021/04/08 09:56:45;;;;;;;;;;;;;;;7.35;38.86;97741.05;1669418;83;20697;-65
2021/04/08 09:59:17;;;;;;;;;;;;;;;7.40;37.63;97740.40;1677648;82;20605;-67
2021/04/08 10:01:45;;;;;;;;;;;;;;;7.37;37.94;97755.21;1673964;82;22010;-67
2021/04/08 10:04:22;;;;;;;;;;;;;;;7.31;37.98;97753.50;1675337;82;20298;-66
2021/04/08 10:07:00;;;;;;;;;;;;;;;7.34;38.47;97740.79;1664213;82;20490;-69
2021/04/08 10:09:28;;;;;;;;;;;;;;;7.40;37.89;97741.70;1680224;82;20674;-66
2021/04/08 10:11:56;;;;;;;;;;;;;;;7.44;37.84;97745.45;1678325;82;20581;-66
2021/04/08 10:14:29;;;;;;;;;;;;;;;7.43;37.81;97740.73;1681597;82;22156;-67
2021/04/08 10:17:09;;;;;;;;;;;;;;;7.37;37.96;97736.91;1651426;84;20506;-63
2021/04/08 10:19:40;;;;;;;;;;;;;;;7.31;37.41;97745.14;1654372;83;20614;-64
2021/04/08 10:22:10;;;;;;;;;;;;;;;7.35;37.55;97744.17;1670198;83;20606;-67
2021/04/08 10:24:40;;;;;;;;;;;;;;;7.40;38.18;97741.20;1669216;82;20746;-71
2021/04/08 10:27:17;;;;;;;;;;;;;;;7.46;37.83;97749.95;1679491;82;22011;-66
2021/04/08 10:29:46;;;;;;;;;;;;;;;7.46;37.23;97740.80;1675206;82;20706;-70
2021/04/08 10:32:38;;;;;;;;;;;;;;;7.41;36.89;97749.84;1669625;82;33742;-69
2021/04/08 10:35:20;;;;;;;;;;;;;;;7.34;37.42;97762.22;1679364;84;20752;-64
2021/04/08 10:37:59;;;;;;;;;;;;;;;7.20;36.80;97752.45;1672998;83;20606;-68
2021/04/08 10:40:27;;;;;;;;;;;;;;;7.11;37.88;97754.30;1667995;83;21903;-71
2021/04/08 10:43:13;;;;;;;;;;;;;;;7.09;37.84;97753.70;1670204;83;20472;-68
2021/04/08 10:45:55;;;;;;;;;;;;;;;7.14;37.68;97749.91;1678673;82;20491;-68
2021/04/08 10:48:25;;;;;;;;;;;;;;;7.29;38.28;97759.45;1672875;82;21072;-63
2021/04/08 10:50:54;;;;;;;;;;;;;;;7.42;37.77;97763.97;1668147;83;20464;-72
2021/04/08 10:53:27;;;;;;;;;;;;;;;7.50;37.80;97745.86;1642559;85;21946;-73
2021/04/08 10:55:55;;;;;;;;;;;;;;;7.58;37.79;97755.99;1623936;86;20561;-65
2021/04/08 10:58:25;;;;;;;;;;;;;;;7.61;37.24;97755.56;1660209;83;20663;-65
2021/04/08 11:00:57;;;;;;;;;;;;;;;7.61;37.11;97751.63;1675112;83;20412;-64
2021/04/08 11:03:25;;;;;;;;;;;;;;;7.62;36.63;97747.20;1674248;82;20695;-68
2021/04/08 11:05:54;;;;;;;;;;;;;;;7.70;36.90;97751.59;1671273;82;21834;-67
2021/04/08 11:08:23;;;;;;;;;;;;;;;7.88;37.31;97762.97;1671963;83;20480;-71
2021/04/08 11:10:53;;;;;;;;;;;;;;;8.05;36.82;97746.88;1668465;84;20512;-66
2021/04/08 11:13:23;;;;;;;;;;;;;;;8.26;36.31;97743.67;1667058;84;20662;-65
2021/04/08 11:15:51;;;;;;;;;;;;;;;8.47;36.37;97744.92;1661135;84;20775;-66
2021/04/08 11:18:20;;;;;;;;;;;;;;;8.61;35.97;97728.72;1682688;82;22119;-68
2021/04/08 11:20:49;;;;;;;;;;;;;;;8.69;35.51;97753.75;1677057;82;20592;-68
2021/04/08 11:23:20;;;;;;;;;;;;;;;8.72;35.86;97742.80;1681397;82;20505;-66
2021/04/08 11:26:01;;;;;;;;;;;;;;;8.78;35.51;97751.57;1643901;85;20612;-66
2021/04/08 11:28:32;;;;;;;;;;;;;;;8.68;33.94;97760.02;1677969;82;20503;-67
2021/04/08 11:31:01;;;;;;;;;;;;;;;8.40;33.83;97758.66;1685650;82;21946;-69
2021/04/08 11:33:30;;;;;;;;;;;;;;;8.19;35.19;97760.02;1692277;82;20513;-67
2021/04/08 11:35:59;;;;;;;;;;;;;;;8.06;35.53;97762.36;1680082;82;20239;-62
2021/04/08 11:38:31;;;;;;;;;;;;;;;7.92;35.31;97763.61;1682330;82;20572;-66
2021/04/08 11:41:06;;;;;;;;;;;;;;;7.73;35.99;97765.52;1645645;85;20988;-70
2021/04/08 11:43:50;;;;;;;;;;;;;;;7.64;36.37;97761.63;1681869;83;21814;-67
2021/04/08 11:46:36;;;;;;;;;;;;;;;7.66;37.45;97762.72;1683550;82;20702;-66
2021/04/08 11:49:18;;;;;;;;;;;;;;;7.70;38.79;97763.37;1677939;82;20652;-64
2021/04/08 11:51:48;;;;;;;;;;;;;;;7.70;40.12;97767.80;1683369;82;20634;-65
2021/04/08 11:54:16;;;;;;;;;;;;;;;7.74;40.85;97776.27;1679502;83;20614;-64
2021/04/08 11:56:44;;;;;;;;;;;;;;;7.83;40.67;97779.36;1681762;82;22064;-65
2021/04/08 11:59:15;;;;;;;;;;;;;;;7.83;40.06;97781.46;1675280;82;20984;-67
2021/04/08 12:01:45;;;;;;;;;;;;;;;7.90;39.54;97784.48;1671842;82;20506;-66
2021/04/08 12:04:20;;;;;;;;;;;;;;;7.97;39.81;97778.11;1681367;82;20768;-69
2021/04/08 12:06:52;;;;;;;;;;;;;;;8.10;39.05;97777.09;1686251;82;20600;-64
2021/04/08 12:09:40;;;;;;;;;;;;;;;8.16;37.78;97784.82;1688780;82;22294;-67
2021/04/08 12:12:08;;;;;;;;;;;;;;;8.11;36.67;97783.41;1677351;83;20269;-63
2021/04/08 12:14:54;;;;;;;;;;;;;;;8.03;36.49;97789.48;1685373;83;20483;-62
2021/04/08 12:17:23;;;;;;;;;;;;;;;7.99;37.47;97787.85;1685799;82;21176;-63
2021/04/08 12:19:51;;;;;;;;;;;;;;;7.97;37.27;97795.12;1677974;82;20584;-64
2021/04/08 12:22:19;;;;;;;;;;;;;;;7.97;37.01;97785.16;1677880;83;22132;-64
2021/04/08 12:25:08;;;;;;;;;;;;;;;7.99;36.99;97793.59;1677799;82;20595;-64
2021/04/08 12:27:36;;;;;;;;;;;;;;;8.00;37.23;97778.95;1680413;83;20506;-65
2021/04/08 12:30:07;;;;;;;;;;;;;;;8.17;37.94;97800.02;1680848;82;20775;-68
2021/04/08 12:32:35;;;;;;;;;;;;;;;8.24;36.56;97788.92;1664411;83;21015;-67
2021/04/08 12:35:05;;;;;;;;;;;;;;;8.16;36.94;97789.26;1674059;83;21898;-69
2021/04/08 12:37:33;;;;;;;;;;;;;;;8.05;37.62;97784.33;1657062;84;20628;-69
2021/04/08 12:40:04;;;;;;;;;;;;;;;8.03;37.82;97793.41;1610114;86;20417;-66
2021/04/08 12:42:32;;;;;;;;;;;;;;;8.02;36.57;97795.74;1670182;82;20519;-63
2021/04/08 12:45:00;;;;;;;;;;;;;;;8.02;35.46;97798.36;1678433;83;20603;-64
2021/04/08 12:47:28;;;;;;;;;;;;;;;8.07;34.78;97789.30;1679350;83;21902;-66
2021/04/08 12:49:56;;;;;;;;;;;;;;;8.11;35.07;97795.70;1672468;83;20499;-65
2021/04/08 12:52:28;;;;;;;;;;;;;;;8.08;34.83;97794.31;1666697;84;20387;-63
2021/04/08 12:54:59;;;;;;;;;;;;;;;8.08;35.12;97799.55;1665950;84;20120;-61
2021/04/08 12:57:27;;;;;;;;;;;;;;;8.15;35.91;97796.82;1677107;82;20588;-66
2021/04/08 12:59:55;;;;;;;;;;;;;;;8.27;35.22;97800.25;1680504;82;21929;-67
2021/04/08 13:02:24;;;;;;;;;;;;;;;8.26;35.13;97798.66;1681007;83;20874;-64
2021/04/08 13:04:51;;;;;;;;;;;;;;;8.23;35.38;97807.75;1669282;84;20490;-65
2021/04/08 13:07:22;;;;;;;;;;;;;;;8.16;34.06;97808.89;1674915;82;20564;-66
2021/04/08 13:09:49;;;;;;;;;;;;;;;8.06;35.08;97813.41;1682192;82;20595;-64
2021/04/08 13:12:17;;;;;;;;;;;;;;;7.97;35.01;97811.34;1692360;82;22047;-66
2021/04/08 13:14:45;;;;;;;;;;;;;;;7.87;35.39;97812.39;1683387;82;20482;-68
2021/04/08 13:17:13;;;;;;;;;;;;;;;7.84;36.04;97814.46;1676018;82;20513;-63
2021/04/08 13:19:43;;;;;;;;;;;;;;;7.84;36.51;97826.73;1685747;82;20398;-66
2021/04/08 13:22:12;;;;;;;;;;;;;;;7.81;36.27;97820.64;1673679;82;20661;-66
2021/04/08 13:24:40;;;;;;;;;;;;;;;7.76;36.40;97829.17;1680853;82;21922;-65
2021/04/08 13:27:08;;;;;;;;;;;;;;;7.73;36.90;97830.11;1680961;82;20582;-67
2021/04/08 13:29:35;;;;;;;;;;;;;;;7.71;37.00;97836.08;1647701;84;20498;-64
2021/04/08 13:32:06;;;;;;;;;;;;;;;7.74;37.23;97840.36;1685333;82;20560;-67
2021/04/08 13:34:34;;;;;;;;;;;;;;;7.74;36.22;97838.25;1685578;82;20171;-66
2021/04/08 13:37:03;;;;;;;;;;;;;;;7.69;36.12;97832.91;1661081;83;21902;-63
2021/04/08 13:39:31;;;;;;;;;;;;;;;7.66;36.42;97840.67;1674724;82;20514;-60
2021/04/08 13:42:00;;;;;;;;;;;;;;;7.63;36.85;97843.76;1681104;82;20499;-66
2021/04/08 13:44:28;;;;;;;;;;;;;;;7.60;36.81;97854.66;1684219;82;20497;-67
2021/04/08 13:46:55;;;;;;;;;;;;;;;7.49;36.97;97856.73;1686049;82;20834;-65
2021/04/08 13:49:24;;;;;;;;;;;;;;;7.41;37.44;97854.42;1676578;82;21966;-64
2021/04/08 13:51:53;;;;;;;;;;;;;;;7.31;38.05;97854.94;1682614;82;20380;-65
2021/04/08 13:54:21;;;;;;;;;;;;;;;7.28;38.29;97870.26;1676975;82;20624;-69
2021/04/08 13:56:50;;;;;;;;;;;;;;;7.22;38.96;97888.93;1680982;83;20539;-65
2021/04/08 13:59:18;;;;;;;;;;;;;;;7.09;39.51;97886.48;1664358;84;20816;-67
